Time,TemperatureF,DewpointF,PressureIn,WindDirection,WindDirectionDegrees,WindSpeedMPH,WindSpeedGustMPH,Humidity,HourlyPrecipIn,Conditions,Clouds,dailyrainin,SoftwareType,DateUTC
2013-02-09 00:14:00,37.9,33.8,29.99,NNE,22,4.2,-999.0,85,-99.99,,,0.00,Acu-Link.com,2013-02-09 05:14:00,
2013-02-09 00:29:00,37.4,33.3,29.99,NNW,337,8.9,-999.0,85,-99.99,,,0.00,Acu-Link.com,2013-02-09 05:29:00,
2013-02-09 00:44:00,37.4,33.6,29.99,East,90,3.7,-999.0,86,-99.99,,,0.00,Acu-Link.com,2013-02-09 05:44:00,
2013-02-09 00:59:00,37.4,33.6,29.99,WNW,292,8.3,-999.0,86,-99.99,,,0.00,Acu-Link.com,2013-02-09 05:59:00,
2013-02-09 01:14:00,37.6,33.8,30.00,NNW,337,4.7,-999.0,86,-99.99,,,0.00,Acu-Link.com,2013-02-09 06:14:00,
2013-02-09 01:29:00,38.1,34.0,30.01,NE,45,2.7,-999.0,85,-99.99,,,0.00,Acu-Link.com,2013-02-09 06:29:00,
2013-02-09 01:44:00,38.3,34.2,30.01,NNE,22,5.3,-999.0,85,-99.99,,,0.00,Acu-Link.com,2013-02-09 06:44:00,
2013-02-09 01:59:00,38.3,34.2,30.00,NE,45,4.2,-999.0,85,-99.99,,,0.00,Acu-Link.com,2013-02-09 06:59:00,
2013-02-09 02:14:00,37.9,34.1,30.01,East,90,3.7,-999.0,86,-99.99,,,0.00,Acu-Link.com,2013-02-09 07:14:00,
2013-02-09 02:30:00,37.9,34.1,30.02,NNE,22,4.7,-999.0,86,-99.99,,,0.00,Acu-Link.com,2013-02-09 07:30:00,
2013-02-09 02:45:00,37.8,34.0,30.01,NNE,22,3.7,-999.0,86,-99.99,,,0.00,Acu-Link.com,2013-02-09 07:45:00,
2013-02-09 03:00:00,37.6,33.8,30.02,NNE,22,7.3,-999.0,86,-99.99,,,0.00,Acu-Link.com,2013-02-09 08:00:00,
2013-02-09 03:15:00,37.2,33.4,30.01,NNE,22,6.3,-999.0,86,-99.99,,,0.00,Acu-Link.com,2013-02-09 08:15:00,
2013-02-09 03:30:00,37.2,33.4,30.02,NE,45,2.7,-999.0,86,-99.99,,,0.00,Acu-Link.com,2013-02-09 08:30:00,
2013-02-09 03:45:00,36.9,33.1,30.02,NE,45,3.2,-999.0,86,-99.99,,,0.00,Acu-Link.com,2013-02-09 08:45:00,
2013-02-09 04:00:00,36.3,32.5,30.02,NE,45,5.8,-999.0,86,-99.99,,,0.00,Acu-Link.com,2013-02-09 09:00:00,
2013-02-09 04:15:00,36.1,32.3,30.02,NE,45,3.2,-999.0,86,-99.99,,,0.00,Acu-Link.com,2013-02-09 09:15:00,
2013-02-09 04:30:00,36.0,32.2,30.02,NNE,22,2.7,-999.0,86,-99.99,,,0.00,Acu-Link.com,2013-02-09 09:30:00,
2013-02-09 04:46:00,35.8,32.3,30.03,NE,45,3.7,-999.0,87,-99.99,,,0.00,Acu-Link.com,2013-02-09 09:46:00,
2013-02-09 05:01:00,35.8,32.3,30.03,NNW,337,5.8,-999.0,87,-99.99,,,0.00,Acu-Link.com,2013-02-09 10:01:00,
2013-02-09 05:16:00,35.4,31.9,30.03,NE,45,3.2,-999.0,87,-99.99,,,0.00,Acu-Link.com,2013-02-09 10:16:00,
2013-02-09 05:31:00,34.7,31.5,30.03,ENE,67,2.7,-999.0,88,-99.99,,,0.00,Acu-Link.com,2013-02-09 10:31:00,
2013-02-09 05:46:00,34.5,31.6,30.04,NNE,22,2.2,-999.0,89,-99.99,,,0.00,Acu-Link.com,2013-02-09 10:46:00,
2013-02-09 06:01:00,34.0,31.1,30.04,ENE,67,1.1,-999.0,89,-99.99,,,0.00,Acu-Link.com,2013-02-09 11:01:00,
2013-02-09 06:16:00,33.3,31.0,30.04,NNW,337,2.7,-999.0,91,-99.99,,,0.00,Acu-Link.com,2013-02-09 11:16:00,
2013-02-09 06:31:00,32.5,30.4,30.04,NNE,22,0.0,-999.0,92,-99.99,,,0.00,Acu-Link.com,2013-02-09 11:31:00,
2013-02-09 06:46:00,32.0,30.2,30.03,NNE,22,2.2,-999.0,93,-99.99,,,0.00,Acu-Link.com,2013-02-09 11:46:00,
2013-02-09 07:02:00,32.0,30.5,30.04,NE,45,3.2,-999.0,94,-99.99,,,0.00,Acu-Link.com,2013-02-09 12:02:00,
2013-02-09 07:17:00,32.0,30.5,30.04,East,90,3.2,-999.0,94,-99.99,,,0.00,Acu-Link.com,2013-02-09 12:17:00,
2013-02-09 07:32:00,32.0,30.5,30.05,NNE,22,5.3,-999.0,94,-99.99,,,0.00,Acu-Link.com,2013-02-09 12:32:00,
2013-02-09 07:47:00,32.2,30.7,30.06,NNW,337,2.7,-999.0,94,-99.99,,,0.00,Acu-Link.com,2013-02-09 12:47:00,
2013-02-09 08:02:00,32.2,30.7,30.06,NNE,22,1.1,-999.0,94,-99.99,,,0.00,Acu-Link.com,2013-02-09 13:02:00,
2013-02-09 08:17:00,33.1,31.0,30.07,NNE,22,3.7,-999.0,92,-99.99,,,0.00,Acu-Link.com,2013-02-09 13:17:00,
2013-02-09 08:32:00,34.0,31.4,30.07,NE,45,3.2,-999.0,90,-99.99,,,0.00,Acu-Link.com,2013-02-09 13:32:00,
2013-02-09 08:47:00,34.5,31.3,30.07,NNW,337,5.3,-999.0,88,-99.99,,,0.00,Acu-Link.com,2013-02-09 13:47:00,
2013-02-09 09:02:00,35.4,31.6,30.08,ENE,67,4.2,-999.0,86,-99.99,,,0.00,Acu-Link.com,2013-02-09 14:02:00,
2013-02-09 09:18:00,36.3,31.6,30.08,East,90,5.3,-999.0,83,-99.99,,,0.00,Acu-Link.com,2013-02-09 14:18:00,
2013-02-09 09:33:00,37.6,32.9,30.08,ENE,67,3.7,-999.0,83,-99.99,,,0.00,Acu-Link.com,2013-02-09 14:33:00,
2013-02-09 09:48:00,38.3,32.7,30.08,NNE,22,4.2,-999.0,80,-99.99,,,0.00,Acu-Link.com,2013-02-09 14:48:00,
2013-02-09 10:03:00,39.2,33.2,30.08,NNE,22,6.8,-999.0,79,-99.99,,,0.00,Acu-Link.com,2013-02-09 15:03:00,
2013-02-09 10:18:00,39.9,33.0,30.09,NE,45,4.7,-999.0,76,-99.99,,,0.00,Acu-Link.com,2013-02-09 15:18:00,
2013-02-09 10:33:00,40.8,33.8,30.08,NW,315,5.3,-999.0,76,-99.99,,,0.00,Acu-Link.com,2013-02-09 15:33:00,
2013-02-09 10:48:00,41.7,34.0,30.08,ENE,67,3.7,-999.0,74,-99.99,,,0.00,Acu-Link.com,2013-02-09 15:48:00,
2013-02-09 11:03:00,42.8,34.1,30.07,NE,45,4.2,-999.0,71,-99.99,,,0.00,Acu-Link.com,2013-02-09 16:03:00,
2013-02-09 11:18:00,43.7,34.6,30.07,ENE,67,3.2,-999.0,70,-99.99,,,0.00,Acu-Link.com,2013-02-09 16:18:00,
2013-02-09 11:34:00,44.8,35.6,30.07,NNE,22,3.2,-999.0,70,-99.99,,,0.00,Acu-Link.com,2013-02-09 16:34:00,
2013-02-09 11:49:00,45.5,34.8,30.06,NNW,337,4.2,-999.0,66,-99.99,,,0.00,Acu-Link.com,2013-02-09 16:49:00,
2013-02-09 12:04:00,46.9,35.8,30.06,NNE,22,3.7,-999.0,65,-99.99,,,0.00,Acu-Link.com,2013-02-09 17:04:00,
2013-02-09 12:19:00,48.6,37.0,30.05,NNE,22,3.7,-999.0,64,-99.99,,,0.00,Acu-Link.com,2013-02-09 17:19:00,
2013-02-09 12:34:00,48.9,36.1,30.05,WNW,292,2.2,-999.0,61,-99.99,,,0.00,Acu-Link.com,2013-02-09 17:34:00,
2013-02-09 12:49:00,51.3,37.9,30.03,East,90,2.2,-999.0,60,-99.99,,,0.00,Acu-Link.com,2013-02-09 17:49:00,
2013-02-09 13:04:00,51.8,37.5,30.02,NNE,22,2.7,-999.0,58,-99.99,,,0.00,Acu-Link.com,2013-02-09 18:04:00,
2013-02-09 13:19:00,53.4,37.2,30.01,NE,45,4.2,-999.0,54,-99.99,,,0.00,Acu-Link.com,2013-02-09 18:19:00,
2013-02-09 13:34:00,53.4,36.2,30.01,East,90,4.7,-999.0,52,-99.99,,,0.00,Acu-Link.com,2013-02-09 18:34:00,
2013-02-09 13:50:00,55.2,37.9,29.99,ENE,67,3.2,-999.0,52,-99.99,,,0.00,Acu-Link.com,2013-02-09 18:50:00,
2013-02-09 14:05:00,56.1,37.7,29.99,North,0,1.1,-999.0,50,-99.99,,,0.00,Acu-Link.com,2013-02-09 19:05:00,
2013-02-09 14:20:00,55.2,35.9,29.98,NNE,22,1.7,-999.0,48,-99.99,,,0.00,Acu-Link.com,2013-02-09 19:20:00,
2013-02-09 14:35:00,56.3,37.4,29.98,NE,45,4.7,-999.0,49,-99.99,,,0.00,Acu-Link.com,2013-02-09 19:35:00,
2013-02-09 14:50:00,57.6,38.1,29.97,WNW,292,3.2,-999.0,48,-99.99,,,0.00,Acu-Link.com,2013-02-09 19:50:00,
2013-02-09 15:05:00,57.4,36.2,29.97,North,0,4.2,-999.0,45,-99.99,,,0.00,Acu-Link.com,2013-02-09 20:05:00,
2013-02-09 15:20:00,58.1,39.6,29.97,WNW,292,2.2,-999.0,50,-99.99,,,0.00,Acu-Link.com,2013-02-09 20:20:00,
2013-02-09 15:35:00,57.6,38.6,29.96,NNW,337,0.0,-999.0,49,-99.99,,,0.00,Acu-Link.com,2013-02-09 20:35:00,
2013-02-09 15:50:00,57.2,37.7,29.95,NNE,22,2.2,-999.0,48,-99.99,,,0.00,Acu-Link.com,2013-02-09 20:50:00,
2013-02-09 16:06:00,57.4,39.4,29.96,NNW,337,4.7,-999.0,51,-99.99,,,0.00,Acu-Link.com,2013-02-09 21:06:00,
2013-02-09 16:21:00,57.9,38.3,29.95,North,0,3.7,-999.0,48,-99.99,,,0.00,Acu-Link.com,2013-02-09 21:21:00,
2013-02-09 16:36:00,56.7,38.3,29.95,NE,45,0.0,-999.0,50,-99.99,,,0.00,Acu-Link.com,2013-02-09 21:36:00,
2013-02-09 16:51:00,57.6,38.6,29.95,NNE,22,1.7,-999.0,49,-99.99,,,0.00,Acu-Link.com,2013-02-09 21:51:00,
2013-02-09 17:06:00,57.4,39.4,29.95,NE,45,0.0,-999.0,51,-99.99,,,0.00,Acu-Link.com,2013-02-09 22:06:00,
2013-02-09 17:21:00,56.7,38.8,29.95,North,0,4.7,-999.0,51,-99.99,,,0.00,Acu-Link.com,2013-02-09 22:21:00,
2013-02-09 17:36:00,56.3,38.9,29.95,NW,315,0.0,-999.0,52,-99.99,,,0.00,Acu-Link.com,2013-02-09 22:36:00,
2013-02-09 17:51:00,55.2,38.8,29.95,North,0,0.0,-999.0,54,-99.99,,,0.00,Acu-Link.com,2013-02-09 22:51:00,
2013-02-09 18:06:00,54.1,38.3,29.95,NW,315,0.0,-999.0,55,-99.99,,,0.00,Acu-Link.com,2013-02-09 23:06:00,
2013-02-09 18:22:00,52.5,38.6,29.95,NNE,22,0.0,-999.0,59,-99.99,,,0.00,Acu-Link.com,2013-02-09 23:22:00,
2013-02-09 18:37:00,50.7,37.7,29.95,NNW,337,0.0,-999.0,61,-99.99,,,0.00,Acu-Link.com,2013-02-09 23:37:00,
2013-02-09 18:52:00,48.9,38.8,29.95,NNW,337,0.0,-999.0,68,-99.99,,,0.00,Acu-Link.com,2013-02-09 23:52:00,
2013-02-09 19:07:00,46.8,38.6,29.96,West,270,0.0,-999.0,73,-99.99,,,0.00,Acu-Link.com,2013-02-10 00:07:00,
2013-02-09 19:22:00,45.3,38.2,29.96,West,270,0.0,-999.0,76,-99.99,,,0.00,Acu-Link.com,2013-02-10 00:22:00,
2013-02-09 19:37:00,44.1,37.7,29.96,WSW,247,0.0,-999.0,78,-99.99,,,0.00,Acu-Link.com,2013-02-10 00:37:00,
2013-02-09 19:52:00,43.2,38.4,29.97,SW,225,0.0,-999.0,83,-99.99,,,0.00,Acu-Link.com,2013-02-10 00:52:00,
2013-02-09 20:07:00,42.1,38.2,29.96,SSW,202,0.0,-999.0,86,-99.99,,,0.00,Acu-Link.com,2013-02-10 01:07:00,
2013-02-09 20:22:00,41.2,37.6,29.96,NNE,22,0.0,-999.0,87,-99.99,,,0.00,Acu-Link.com,2013-02-10 01:22:00,
2013-02-09 20:38:00,41.0,38.3,29.97,SSW,202,0.0,-999.0,90,-99.99,,,0.00,Acu-Link.com,2013-02-10 01:38:00,
2013-02-09 20:53:00,40.3,37.6,29.97,NNW,337,0.0,-999.0,90,-99.99,,,0.00,Acu-Link.com,2013-02-10 01:53:00,
2013-02-09 21:08:00,40.1,37.4,29.96,ENE,67,0.0,-999.0,90,-99.99,,,0.00,Acu-Link.com,2013-02-10 02:08:00,
2013-02-09 21:23:00,39.9,37.5,29.97,NW,315,0.0,-999.0,91,-99.99,,,0.00,Acu-Link.com,2013-02-10 02:23:00,
2013-02-09 21:38:00,40.1,38.2,29.96,SSE,157,0.0,-999.0,93,-99.99,,,0.00,Acu-Link.com,2013-02-10 02:38:00,
2013-02-09 21:53:00,39.7,37.8,29.96,SE,135,0.0,-999.0,93,-99.99,,,0.00,Acu-Link.com,2013-02-10 02:53:00,
2013-02-09 22:08:00,39.7,37.6,29.97,East,90,0.0,-999.0,92,-99.99,,,0.00,Acu-Link.com,2013-02-10 03:08:00,
2013-02-09 22:23:00,40.3,37.3,29.98,ESE,112,0.0,-999.0,89,-99.99,,,0.00,Acu-Link.com,2013-02-10 03:23:00,
2013-02-09 22:38:00,40.1,37.1,29.98,SSE,157,0.0,-999.0,89,-99.99,,,0.00,Acu-Link.com,2013-02-10 03:38:00,
2013-02-09 22:54:00,40.6,38.2,29.97,South,180,0.0,-999.0,91,-99.99,,,0.00,Acu-Link.com,2013-02-10 03:54:00,
2013-02-09 23:09:00,40.6,38.5,29.97,South,180,0.0,-999.0,92,-99.99,,,0.00,Acu-Link.com,2013-02-10 04:09:00,
2013-02-09 23:24:00,40.6,38.5,29.96,West,270,0.0,-999.0,92,-99.99,,,0.00,Acu-Link.com,2013-02-10 04:24:00,
2013-02-09 23:39:00,40.6,38.5,29.97,West,270,0.0,-999.0,92,-99.99,,,0.00,Acu-Link.com,2013-02-10 04:39:00,
2013-02-09 23:54:00,40.5,38.6,29.97,SSE,157,0.0,-999.0,93,-99.99,,,0.00,Acu-Link.com,2013-02-10 04:54:00,